createdAt,value
2023-05-05T00:02:04.683Z,66.80
2023-05-05T00:04:31.515Z,67.00
2023-05-05T00:06:58.235Z,66.90
2023-05-05T00:09:25.089Z,67.10
2023-05-05T00:11:52.049Z,67.20
2023-05-05T00:14:18.819Z,67.40
2023-05-05T00:16:45.633Z,67.20
2023-05-05T00:19:12.430Z,67.50
2023-05-05T00:21:39.191Z,67.40
2023-05-05T00:24:06.129Z,67.80
2023-05-05T00:26:32.826Z,68.50
2023-05-05T00:28:59.584Z,68.90
2023-05-05T00:31:26.910Z,69.10
2023-05-05T00:33:53.790Z,69.40
2023-05-05T00:36:20.540Z,69.50
2023-05-05T00:38:47.411Z,69.80
2023-05-05T00:41:14.184Z,69.70
2023-05-05T00:43:40.947Z,69.60
2023-05-05T00:46:24.248Z,69.90
2023-05-05T00:48:51.800Z,70.10
2023-05-05T00:51:19.987Z,70.50
2023-05-05T00:53:48.146Z,70.80
2023-05-05T00:56:16.885Z,71.10
2023-05-05T01:01:12.417Z,71.10
2023-05-05T01:03:41.187Z,71.70
2023-05-05T01:06:08.185Z,71.70
2023-05-05T01:08:56.378Z,71.80
2023-05-05T01:11:44.856Z,71.60
2023-05-05T01:14:17.573Z,71.80
2023-05-05T01:16:59.658Z,72.00
2023-05-05T01:19:46.716Z,72.20
2023-05-05T01:22:18.473Z,72.40
2023-05-05T01:25:12.266Z,72.30
2023-05-05T01:27:51.741Z,72.20
2023-05-05T01:30:46.008Z,72.00
2023-05-05T01:33:18.093Z,72.10
2023-05-05T01:35:50.562Z,72.40
2023-05-05T01:38:32.335Z,72.00
2023-05-05T01:41:25.307Z,71.90
2023-05-05T01:43:54.380Z,71.90
2023-05-05T01:46:23.689Z,71.70
2023-05-05T01:48:53.751Z,71.60
2023-05-05T01:51:23.684Z,71.50
2023-05-05T01:53:52.911Z,71.50
2023-05-05T01:56:21.882Z,71.60
2023-05-05T01:58:49.443Z,71.90
2023-05-05T02:01:18.408Z,72.40
2023-05-05T02:03:47.050Z,72.10
2023-05-05T02:06:16.205Z,72.10
2023-05-05T02:08:44.749Z,72.40
2023-05-05T02:11:12.489Z,72.50
2023-05-05T02:13:42.090Z,72.60
2023-05-05T02:16:10.260Z,72.70
2023-05-05T02:18:38.873Z,73.00
2023-05-05T02:21:07.554Z,73.00
2023-05-05T02:23:34.421Z,73.30
2023-05-05T02:26:06.865Z,73.20
2023-05-05T02:28:47.227Z,73.20
2023-05-05T02:31:16.414Z,73.80
2023-05-05T02:33:45.706Z,73.60
2023-05-05T02:36:19.538Z,73.90
2023-05-05T02:38:49.212Z,74.20
2023-05-05T02:41:20.222Z,0.00
2023-05-05T02:43:49.934Z,74.30
2023-05-05T02:46:17.894Z,74.10
2023-05-05T02:48:45.215Z,74.00
2023-05-05T02:51:11.927Z,74.20
2023-05-05T02:53:39.267Z,74.10
2023-05-05T02:56:47.354Z,74.20
2023-05-05T02:59:19.647Z,74.20
2023-05-05T03:01:46.616Z,74.20
2023-05-05T03:04:23.830Z,74.00
2023-05-05T03:06:56.506Z,74.20
2023-05-05T03:09:45.545Z,74.30
2023-05-05T03:12:18.189Z,0.00
2023-05-05T03:14:45.974Z,74.30
2023-05-05T03:17:14.701Z,74.10
2023-05-05T03:19:43.328Z,74.20
2023-05-05T03:22:10.677Z,74.60
2023-05-05T03:24:37.466Z,74.00
2023-05-05T03:27:04.399Z,74.10
2023-05-05T03:29:31.354Z,74.10
2023-05-05T03:31:59.079Z,74.10
2023-05-05T03:34:25.892Z,74.00
2023-05-05T03:36:52.641Z,74.00
2023-05-05T03:39:19.358Z,74.00
2023-05-05T03:41:46.169Z,74.30
2023-05-05T03:44:12.931Z,74.20
2023-05-05T03:46:39.625Z,74.30
2023-05-05T03:49:06.312Z,74.40
2023-05-05T03:51:33.114Z,74.50
2023-05-05T03:53:59.953Z,74.50
2023-05-05T03:56:26.725Z,74.60
2023-05-05T03:58:53.467Z,74.70
2023-05-05T04:01:20.265Z,74.80
2023-05-05T04:03:47.069Z,74.80
2023-05-05T04:06:13.845Z,74.90
2023-05-05T04:08:40.597Z,74.90
2023-05-05T04:11:07.328Z,74.80
2023-05-05T04:13:33.983Z,74.90
2023-05-05T04:16:00.861Z,75.00
2023-05-05T04:18:27.729Z,74.70
2023-05-05T04:20:54.356Z,74.70
2023-05-05T04:23:21.132Z,74.80
2023-05-05T04:25:47.833Z,74.90
2023-05-05T04:28:14.577Z,74.80
2023-05-05T04:30:41.419Z,75.10
2023-05-05T04:33:08.192Z,74.80
2023-05-05T04:35:35.018Z,75.20
2023-05-05T04:38:01.918Z,75.40
2023-05-05T04:40:28.718Z,75.00
2023-05-05T04:42:55.700Z,75.30
2023-05-05T04:45:22.555Z,74.80
2023-05-05T04:47:49.667Z,74.80
2023-05-05T04:50:16.544Z,75.00
2023-05-05T04:52:43.323Z,74.50
2023-05-05T04:55:11.529Z,75.00
2023-05-05T04:57:38.342Z,74.70
2023-05-05T05:00:06.557Z,74.90
2023-05-05T05:02:33.561Z,74.90
2023-05-05T05:05:00.408Z,74.60
2023-05-05T05:07:27.139Z,74.70
2023-05-05T05:09:53.969Z,74.50
2023-05-05T05:12:21.035Z,74.50
2023-05-05T05:14:47.806Z,74.10
2023-05-05T05:17:14.529Z,74.00
2023-05-05T05:19:41.442Z,74.30
2023-05-05T05:22:08.225Z,74.30
2023-05-05T05:24:35.066Z,74.30
2023-05-05T05:27:01.859Z,74.40
2023-05-05T05:29:28.589Z,74.30
2023-05-05T05:31:55.423Z,74.20
2023-05-05T05:34:22.314Z,73.90
2023-05-05T05:36:49.279Z,73.40
2023-05-05T05:39:16.010Z,74.00
2023-05-05T05:41:43.086Z,73.60
2023-05-05T05:44:09.896Z,73.40
2023-05-05T05:46:36.690Z,0.00
2023-05-05T05:49:03.509Z,73.50
2023-05-05T05:51:30.410Z,73.50
2023-05-05T05:53:58.770Z,73.50
2023-05-05T05:56:25.773Z,73.30
2023-05-05T05:58:52.797Z,73.30
2023-05-05T06:01:19.510Z,73.00
2023-05-05T06:03:46.670Z,73.00
2023-05-05T06:06:13.623Z,72.50
2023-05-05T06:08:40.465Z,72.50
2023-05-05T06:11:07.310Z,72.40
2023-05-05T06:13:34.200Z,71.90
2023-05-05T06:16:01.280Z,72.00
2023-05-05T06:18:28.733Z,71.80
2023-05-05T06:20:55.569Z,71.80
2023-05-05T06:23:22.289Z,71.50
2023-05-05T06:25:49.015Z,71.40
2023-05-05T06:28:16.253Z,71.40
2023-05-05T06:30:43.208Z,69.90
2023-05-05T06:33:10.022Z,71.10
2023-05-05T06:35:37.092Z,70.20
2023-05-05T06:38:04.240Z,70.00
2023-05-05T06:40:33.106Z,69.90
2023-05-05T06:42:59.812Z,0.00
2023-05-05T06:45:26.927Z,69.20
2023-05-05T06:47:53.767Z,69.20
2023-05-05T06:50:20.509Z,69.20
2023-05-05T06:52:47.370Z,68.80
2023-05-05T06:55:14.068Z,68.50
2023-05-05T06:57:40.841Z,67.10
2023-05-05T07:00:11.255Z,66.90
2023-05-05T07:02:38.703Z,66.30
2023-05-05T07:05:06.048Z,66.00
2023-05-05T07:07:32.885Z,66.10
2023-05-05T07:09:59.649Z,66.30
2023-05-05T07:12:30.260Z,66.20
2023-05-05T07:14:57.284Z,66.10
2023-05-05T07:17:24.159Z,66.10
2023-05-05T07:19:51.748Z,66.20
2023-05-05T07:22:18.595Z,65.80
2023-05-05T07:24:45.515Z,66.00
2023-05-05T07:27:12.400Z,66.00
2023-05-05T07:29:39.143Z,66.10
2023-05-05T07:32:06.047Z,65.70
2023-05-05T07:34:34.355Z,65.80
2023-05-05T07:37:01.274Z,65.90
2023-05-05T07:39:28.074Z,65.70
2023-05-05T07:41:54.850Z,65.40
2023-05-05T07:44:21.726Z,64.70
2023-05-05T07:46:48.678Z,64.40
2023-05-05T07:49:15.579Z,64.30
2023-05-05T07:51:42.626Z,64.10
2023-05-05T07:54:09.430Z,64.20
2023-05-05T07:56:36.143Z,64.30
2023-05-05T07:59:02.908Z,64.40
2023-05-05T08:01:29.853Z,64.30
2023-05-05T08:03:56.697Z,64.20
2023-05-05T08:06:24.985Z,64.00
2023-05-05T08:08:53.482Z,64.00
2023-05-05T08:11:21.674Z,63.90
2023-05-05T08:13:48.757Z,64.10
2023-05-05T08:16:15.860Z,63.90
2023-05-05T08:18:42.821Z,64.00
2023-05-05T08:21:10.347Z,63.60
2023-05-05T08:23:38.107Z,63.40
2023-05-05T08:26:06.299Z,63.40
2023-05-05T08:28:36.837Z,62.70
2023-05-05T08:31:07.097Z,62.80
2023-05-05T08:33:34.018Z,63.40
2023-05-05T08:36:00.795Z,62.90
2023-05-05T08:38:27.578Z,63.10
2023-05-05T08:40:54.416Z,62.50
2023-05-05T08:43:23.747Z,62.40
2023-05-05T08:45:53.563Z,61.80
2023-05-05T08:48:21.957Z,62.00
2023-05-05T08:50:56.271Z,61.50
2023-05-05T08:53:34.863Z,0.00
2023-05-05T08:56:04.081Z,58.80
2023-05-05T08:58:31.658Z,58.50
2023-05-05T09:00:59.061Z,59.00
2023-05-05T09:03:27.175Z,57.00
2023-05-05T09:05:54.153Z,57.30
2023-05-05T09:08:21.381Z,57.70
2023-05-05T09:10:49.099Z,58.40
2023-05-05T09:13:25.727Z,59.00
2023-05-05T09:15:54.712Z,59.80
2023-05-05T09:18:21.462Z,58.20
2023-05-05T09:20:48.353Z,57.70
2023-05-05T09:23:20.223Z,56.40
2023-05-05T09:26:08.364Z,54.40
2023-05-05T09:28:35.275Z,54.50
2023-05-05T09:31:15.945Z,54.20
2023-05-05T09:33:43.664Z,54.00
2023-05-05T09:36:11.602Z,53.80
2023-05-05T09:38:38.510Z,53.60
2023-05-05T09:41:06.436Z,53.50
2023-05-05T09:43:51.872Z,52.90
2023-05-05T09:46:18.966Z,53.20
2023-05-05T09:48:45.923Z,53.30
2023-05-05T09:51:12.740Z,52.40
2023-05-05T09:53:41.528Z,52.00
2023-05-05T09:56:08.615Z,53.40
2023-05-05T09:58:35.682Z,53.70
2023-05-05T10:01:02.521Z,54.00
2023-05-05T10:03:29.351Z,53.20
2023-05-05T10:05:59.708Z,0.00
2023-05-05T10:08:30.457Z,52.80
2023-05-05T10:11:05.065Z,52.60
2023-05-05T10:13:37.454Z,52.60
2023-05-05T10:16:07.958Z,51.90
2023-05-05T10:18:36.661Z,52.00
2023-05-05T10:21:05.010Z,52.50
2023-05-05T10:23:38.102Z,52.80
2023-05-05T10:26:07.545Z,52.30
2023-05-05T10:28:53.236Z,52.30
2023-05-05T10:31:46.344Z,51.60
2023-05-05T10:34:27.137Z,51.70
2023-05-05T10:36:55.188Z,51.80
2023-05-05T10:39:23.865Z,51.70
2023-05-05T10:41:52.175Z,51.70
2023-05-05T10:44:19.792Z,51.20
2023-05-05T10:46:47.135Z,51.40
2023-05-05T10:49:40.783Z,51.50
2023-05-05T10:52:32.242Z,51.70
2023-05-05T10:55:18.004Z,51.60
2023-05-05T10:57:45.920Z,51.50
2023-05-05T11:00:39.107Z,51.10
2023-05-05T11:03:17.996Z,50.80
2023-05-05T11:06:03.661Z,51.00
2023-05-05T11:08:31.197Z,51.10
2023-05-05T11:10:58.362Z,51.40
2023-05-05T11:13:25.541Z,50.50
2023-05-05T11:15:54.239Z,50.50
2023-05-05T11:18:31.497Z,50.40
2023-05-05T11:20:58.198Z,50.60
2023-05-05T11:23:26.045Z,50.60
2023-05-05T11:25:53.710Z,49.80
2023-05-05T11:28:30.929Z,49.40
2023-05-05T11:30:58.713Z,50.00
2023-05-05T11:33:38.835Z,49.60
2023-05-05T11:36:07.707Z,49.60
2023-05-05T11:38:55.763Z,50.50
2023-05-05T11:41:34.352Z,49.60
2023-05-05T11:44:15.515Z,49.90
2023-05-05T11:47:05.540Z,49.60
2023-05-05T11:49:34.189Z,48.90
2023-05-05T11:52:12.493Z,49.10
2023-05-05T11:54:41.353Z,0.00
2023-05-05T11:57:08.965Z,48.50
2023-05-05T11:59:37.369Z,49.20
2023-05-05T12:02:04.993Z,49.20
2023-05-05T12:04:32.404Z,48.80
2023-05-05T12:06:59.881Z,49.30
2023-05-05T12:09:27.308Z,48.80
2023-05-05T12:11:56.173Z,48.50
2023-05-05T12:14:24.437Z,49.20
2023-05-05T12:16:58.606Z,48.90
2023-05-05T12:19:33.240Z,49.00
2023-05-05T12:22:01.018Z,48.50
2023-05-05T12:24:28.156Z,48.20
2023-05-05T12:26:54.948Z,48.20
2023-05-05T12:29:26.204Z,47.50
2023-05-05T12:31:53.014Z,47.10
2023-05-05T12:34:21.271Z,47.20
2023-05-05T12:36:48.123Z,47.20
2023-05-05T12:39:15.003Z,46.80
2023-05-05T12:41:43.241Z,45.90
2023-05-05T12:44:10.252Z,46.20
2023-05-05T12:46:47.981Z,45.40
2023-05-05T12:49:15.479Z,45.90
2023-05-05T12:51:56.702Z,0.00
2023-05-05T12:54:25.091Z,46.80
2023-05-05T12:56:51.954Z,46.60
2023-05-05T12:59:21.604Z,46.00
2023-05-05T13:01:52.900Z,45.40
2023-05-05T13:04:21.385Z,45.60
2023-05-05T13:06:49.290Z,45.50
2023-05-05T13:09:34.447Z,45.30
2023-05-05T13:12:04.513Z,45.40
2023-05-05T13:14:34.770Z,44.50
2023-05-05T13:17:01.694Z,44.10
2023-05-05T13:19:28.718Z,44.40
2023-05-05T13:21:57.338Z,44.20
2023-05-05T13:24:38.033Z,44.30
2023-05-05T13:27:09.616Z,44.80
2023-05-05T13:29:36.471Z,44.50
2023-05-05T13:32:03.384Z,44.20
2023-05-05T13:34:30.366Z,44.30
2023-05-05T13:36:57.181Z,44.20
2023-05-05T13:39:24.065Z,44.00
2023-05-05T13:41:51.030Z,43.70
2023-05-05T13:44:17.795Z,43.70
2023-05-05T13:46:44.683Z,43.30
2023-05-05T13:49:11.658Z,43.10
2023-05-05T13:51:39.050Z,42.50
2023-05-05T13:54:06.847Z,42.50
2023-05-05T13:56:34.664Z,42.00
2023-05-05T13:59:02.453Z,42.50
2023-05-05T14:01:29.675Z,42.90
2023-05-05T14:03:57.576Z,42.70
2023-05-05T14:06:25.070Z,42.20
2023-05-05T14:08:52.001Z,42.60
2023-05-05T14:11:20.620Z,43.00
2023-05-05T14:13:48.022Z,42.60
2023-05-05T14:16:15.649Z,42.50
2023-05-05T14:18:42.559Z,42.00
2023-05-05T14:21:09.540Z,41.80
2023-05-05T14:23:37.707Z,41.80
2023-05-05T14:26:04.488Z,41.70
2023-05-05T14:28:31.265Z,41.30
2023-05-05T14:30:58.023Z,41.30
2023-05-05T14:33:24.800Z,41.20
2023-05-05T14:35:51.990Z,41.20
2023-05-05T14:38:18.729Z,40.80
2023-05-05T14:40:45.740Z,40.50
2023-05-05T14:43:12.519Z,40.90
2023-05-05T14:45:39.406Z,41.00
2023-05-05T14:48:06.202Z,40.60
2023-05-05T14:50:35.418Z,40.40
2023-05-05T14:53:02.177Z,0.00
2023-05-05T14:55:29.320Z,40.90
2023-05-05T14:57:56.123Z,40.70
2023-05-05T15:00:22.938Z,41.00
2023-05-05T15:02:49.704Z,40.60
2023-05-05T15:05:16.624Z,40.40
2023-05-05T15:07:43.471Z,40.40
2023-05-05T15:10:10.730Z,40.20
2023-05-05T15:12:37.641Z,40.00
2023-05-05T15:15:04.732Z,40.40
2023-05-05T15:17:31.958Z,40.70
2023-05-05T15:20:01.377Z,0.00
2023-05-05T15:22:28.079Z,41.00
2023-05-05T15:24:54.785Z,40.10
2023-05-05T15:27:21.537Z,40.50
2023-05-05T15:29:48.812Z,39.90
2023-05-05T15:32:15.551Z,39.80
2023-05-05T15:34:43.943Z,39.90
2023-05-05T15:37:10.978Z,39.40
2023-05-05T15:39:37.700Z,39.80
2023-05-05T15:42:04.940Z,40.40
2023-05-05T15:44:32.077Z,40.10
2023-05-05T15:46:58.963Z,40.30
2023-05-05T15:49:25.861Z,40.60
2023-05-05T15:51:52.683Z,40.80
2023-05-05T15:54:19.507Z,40.60
2023-05-05T15:56:46.211Z,40.80
2023-05-05T15:59:12.954Z,40.50
2023-05-05T16:01:39.817Z,40.90
2023-05-05T16:04:06.743Z,40.30
2023-05-05T16:06:33.468Z,40.20
2023-05-05T16:09:00.278Z,40.70
2023-05-05T16:11:27.186Z,40.80
2023-05-05T16:13:54.049Z,41.00
2023-05-05T16:16:21.201Z,41.60
2023-05-05T16:18:48.363Z,40.80
2023-05-05T16:21:15.196Z,40.80
2023-05-05T16:23:42.013Z,40.70
2023-05-05T16:26:08.848Z,41.10
2023-05-05T16:28:35.740Z,41.30
2023-05-05T16:31:02.506Z,42.00
2023-05-05T16:33:29.513Z,42.40
2023-05-05T16:35:56.393Z,42.20
2023-05-05T16:38:23.165Z,42.30
2023-05-05T16:40:49.995Z,42.10
2023-05-05T16:43:16.783Z,41.60
2023-05-05T16:45:43.548Z,41.90
2023-05-05T16:48:10.550Z,42.00
2023-05-05T16:50:37.243Z,41.60
2023-05-05T16:53:04.036Z,41.70
2023-05-05T16:55:31.455Z,42.20
2023-05-05T16:57:58.205Z,42.20
2023-05-05T17:00:25.012Z,41.70
2023-05-05T17:02:51.836Z,42.40
2023-05-05T17:05:18.685Z,43.00
2023-05-05T17:07:45.483Z,42.90
2023-05-05T17:10:12.318Z,42.20
2023-05-05T17:12:39.086Z,42.20
2023-05-05T17:15:06.815Z,42.30
2023-05-05T17:17:33.811Z,42.30
2023-05-05T17:20:03.108Z,42.90
2023-05-05T17:22:29.967Z,0.00
2023-05-05T17:24:56.671Z,43.00
2023-05-05T17:27:23.500Z,42.50
2023-05-05T17:29:50.393Z,42.80
2023-05-05T17:32:17.177Z,43.30
2023-05-05T17:34:43.949Z,43.20
2023-05-05T17:37:11.020Z,43.00
2023-05-05T17:39:37.784Z,43.30
2023-05-05T17:42:04.684Z,43.40
2023-05-05T17:44:32.630Z,43.40
2023-05-05T17:46:59.398Z,43.30
2023-05-05T17:49:26.162Z,44.30
2023-05-05T17:51:52.851Z,44.70
2023-05-05T17:54:19.577Z,45.00
2023-05-05T17:56:46.314Z,45.50
2023-05-05T17:59:13.035Z,45.90
2023-05-05T18:01:40.124Z,45.60
2023-05-05T18:04:07.077Z,45.10
2023-05-05T18:06:33.891Z,45.30
2023-05-05T18:09:00.670Z,45.10
2023-05-05T18:11:28.911Z,45.50
2023-05-05T18:13:56.224Z,45.70
2023-05-05T18:16:23.057Z,45.80
2023-05-05T18:18:49.969Z,46.10
2023-05-05T18:21:16.767Z,46.40
2023-05-05T18:23:43.588Z,46.90
2023-05-05T18:26:10.356Z,47.20
2023-05-05T18:28:37.544Z,47.80
2023-05-05T18:31:04.641Z,47.60
2023-05-05T18:33:31.518Z,48.10
2023-05-05T18:35:58.249Z,48.10
2023-05-05T18:38:25.121Z,48.50
2023-05-05T18:40:51.905Z,48.50
2023-05-05T18:43:18.898Z,48.40
2023-05-05T18:45:45.794Z,48.50
2023-05-05T18:48:12.607Z,48.80
2023-05-05T18:50:39.467Z,48.80
2023-05-05T18:53:07.411Z,49.10
2023-05-05T18:55:34.113Z,0.00
2023-05-05T18:58:00.919Z,49.10
2023-05-05T19:00:28.376Z,49.40
2023-05-05T19:02:55.303Z,49.60
2023-05-05T19:05:22.246Z,49.80
2023-05-05T19:07:49.101Z,49.80
2023-05-05T19:10:15.948Z,49.80
2023-05-05T19:12:43.142Z,50.10
2023-05-05T19:15:10.611Z,50.60
2023-05-05T19:17:37.701Z,50.40
2023-05-05T19:20:04.918Z,50.90
2023-05-05T19:22:31.787Z,50.70
2023-05-05T19:24:58.486Z,51.20
2023-05-05T19:27:25.291Z,52.10
2023-05-05T19:29:52.916Z,52.60
2023-05-05T19:32:21.225Z,53.20
2023-05-05T19:34:48.364Z,53.20
2023-05-05T19:37:15.263Z,53.40
2023-05-05T19:39:44.466Z,53.60
2023-05-05T19:42:11.880Z,53.50
2023-05-05T19:44:38.674Z,54.10
2023-05-05T19:47:06.101Z,54.00
2023-05-05T19:49:33.382Z,54.10
2023-05-05T19:52:00.279Z,54.40
2023-05-05T19:54:28.060Z,54.30
2023-05-05T19:56:57.297Z,54.20
2023-05-05T19:59:24.646Z,54.70
2023-05-05T20:01:51.666Z,54.70
2023-05-05T20:04:19.026Z,54.80
2023-05-05T20:06:45.965Z,54.80
2023-05-05T20:09:13.277Z,54.90
2023-05-05T20:11:39.991Z,55.00
2023-05-05T20:14:06.799Z,55.10
2023-05-05T20:16:33.772Z,55.60
2023-05-05T20:19:00.766Z,55.60
2023-05-05T20:21:27.963Z,55.60
2023-05-05T20:23:55.243Z,55.60
2023-05-05T20:26:22.432Z,55.80
2023-05-05T20:28:49.563Z,55.90
2023-05-05T20:31:16.441Z,55.90
2023-05-05T20:33:43.859Z,55.80
2023-05-05T20:36:11.159Z,55.60
2023-05-05T20:38:37.925Z,57.20
2023-05-05T20:41:05.176Z,56.00
2023-05-05T20:43:32.170Z,57.20
2023-05-05T20:45:59.041Z,57.90
2023-05-05T20:48:26.534Z,57.80
2023-05-05T20:50:53.501Z,58.20
2023-05-05T20:53:20.972Z,58.00
2023-05-05T20:55:47.818Z,58.20
2023-05-05T20:58:15.180Z,58.50
2023-05-05T21:00:41.914Z,58.40
2023-05-05T21:03:08.856Z,58.40
2023-05-05T21:05:36.090Z,58.10
2023-05-05T21:08:02.919Z,58.40
2023-05-05T21:10:31.958Z,58.60
2023-05-05T21:13:00.127Z,58.70
2023-05-05T21:15:27.182Z,58.60
2023-05-05T21:17:54.520Z,58.90
2023-05-05T21:20:22.048Z,59.10
2023-05-05T21:22:49.365Z,59.00
2023-05-05T21:25:21.176Z,59.50
2023-05-05T21:27:48.780Z,59.40
2023-05-05T21:30:15.870Z,59.60
2023-05-05T21:32:43.181Z,59.50
2023-05-05T21:35:10.368Z,59.60
